Time;durP1;ratioP1;P1;durP2;ratioP2;P2;SDS_P1;SDS_P2;PMS_P1;PMS_P2;Temp;Humidity;BMP_temperature;BMP_pressure;BME280_temperature;BME280_humidity;BME280_pressure;Samples;Min_cycle;Max_cycle;Signal;HPM_P1;HPM_P2
2023/09/02 00:02:06;;;;;;;9.50;5.50;;;;;;;14.24;78.64;100229.46;131049;1251;107073;-77
2023/09/02 00:05:12;;;;;;;7.10;5.30;;;;;;;14.24;78.63;100231.11;131177;1253;109501;-77
2023/09/02 00:08:17;;;;;;;6.20;5.10;;;;;;;14.22;78.85;100227.23;131041;1261;106663;-77
2023/09/02 00:11:24;;;;;;;9.80;5.80;;;;;;;14.20;78.98;100224.79;131083;1253;108035;-77
2023/09/02 00:14:29;;;;;;;9.70;5.40;;;;;;;14.19;79.01;100229.28;131082;1254;106558;-77
2023/09/02 00:17:36;;;;;;;6.00;4.70;;;;;;;14.22;79.12;100233.59;131131;1251;106566;-77
2023/09/02 00:20:41;;;;;;;7.70;5.50;;;;;;;14.20;79.23;100237.50;131010;1250;108100;-77
2023/09/02 00:23:47;;;;;;;7.10;6.00;;;;;;;14.21;79.33;100237.90;131106;1253;106939;-77
2023/09/02 00:26:53;;;;;;;8.30;5.30;;;;;;;14.25;79.45;100235.12;131152;1253;108579;-77
2023/09/02 00:29:58;;;;;;;8.10;5.30;;;;;;;14.24;79.43;100235.40;130966;1254;106970;-77
2023/09/02 00:33:04;;;;;;;10.10;5.30;;;;;;;14.22;79.68;100235.73;131111;1251;108727;-77
2023/09/02 00:36:10;;;;;;;6.10;4.50;;;;;;;14.21;79.59;100239.35;131081;1254;107142;-77
2023/09/02 00:39:16;;;;;;;6.60;4.60;;;;;;;14.22;79.83;100242.92;131074;1251;108247;-77
2023/09/02 00:42:25;;;;;;;5.80;4.50;;;;;;;14.26;80.05;100235.71;131074;1260;106886;-77
2023/09/02 00:45:30;;;;;;;9.30;4.70;;;;;;;14.30;79.86;100234.01;131053;1251;107450;-77
2023/09/02 00:48:36;;;;;;;8.30;5.00;;;;;;;14.32;79.96;100232.16;131077;1249;107837;-78
2023/09/02 00:51:42;;;;;;;8.20;5.00;;;;;;;14.31;80.02;100232.81;131075;1250;108563;-78
2023/09/02 00:54:48;;;;;;;6.80;4.80;;;;;;;14.27;80.06;100225.38;131109;1254;107094;-77
2023/09/02 00:57:56;;;;;;;7.90;4.60;;;;;;;14.25;80.07;100229.52;131089;1253;107019;-77
2023/09/02 01:01:03;;;;;;;6.20;4.70;;;;;;;14.20;80.32;100223.85;131129;1253;107734;-78
2023/09/02 01:04:09;;;;;;;6.20;5.10;;;;;;;14.25;80.43;100234.88;131141;1250;106856;-77
2023/09/02 01:07:15;;;;;;;6.00;5.10;;;;;;;14.24;80.44;100237.69;131141;1253;107911;-78
2023/09/02 01:10:22;;;;;;;7.40;5.10;;;;;;;14.22;80.50;100242.02;131159;1253;108631;-78
2023/09/02 01:13:28;;;;;;;5.70;4.80;;;;;;;14.21;80.57;100238.47;131021;1253;107875;-78
2023/09/02 01:16:33;;;;;;;9.00;4.80;;;;;;;14.18;80.47;100243.75;131053;1257;106306;-78
2023/09/02 01:19:40;;;;;;;8.70;5.30;;;;;;;14.14;80.44;100246.86;131051;1251;107606;-78
2023/09/02 01:23:12;;;;;;;8.20;5.10;;;;;;;14.09;80.40;100251.41;131136;1253;107709;-78
2023/09/02 01:26:37;;;;;;;7.70;4.80;;;;;;;14.04;80.69;100248.02;131130;1250;106350;-78
2023/09/02 01:29:48;;;;;;;7.50;5.40;;;;;;;14.03;80.60;100245.34;131058;1253;106725;-78
2023/09/02 01:32:56;;;;;;;9.00;5.20;;;;;;;13.96;80.63;100245.55;130989;1251;107774;-78
2023/09/02 01:36:03;;;;;;;9.00;4.90;;;;;;;13.91;80.60;100244.74;131129;1253;106753;-78
2023/09/02 01:39:10;;;;;;;7.30;5.00;;;;;;;13.86;80.55;100251.38;131095;1253;107606;-78
2023/09/02 01:42:17;;;;;;;7.00;4.70;;;;;;;13.80;80.79;100250.98;131026;1253;107508;-78
2023/09/02 01:45:25;;;;;;;7.20;5.20;;;;;;;13.79;80.96;100256.99;131040;1253;108595;-78
2023/09/02 01:48:31;;;;;;;7.10;4.90;;;;;;;13.79;81.12;100256.95;131119;1251;108359;-78
2023/09/02 01:51:37;;;;;;;6.30;5.10;;;;;;;13.79;80.92;100255.59;131111;1250;106983;-78
2023/09/02 01:54:44;;;;;;;6.50;5.30;;;;;;;13.77;80.90;100257.16;131047;1254;107683;-79
2023/09/02 01:57:50;;;;;;;6.20;5.00;;;;;;;13.76;81.01;100255.70;131056;1250;109349;-78
2023/09/02 02:00:56;;;;;;;6.60;5.50;;;;;;;13.72;80.93;100260.41;131132;1254;106916;-78
2023/09/02 02:04:07;;;;;;;6.80;4.80;;;;;;;13.67;80.91;100258.48;130982;1255;106500;-78
2023/09/02 02:07:15;;;;;;;5.60;4.20;;;;;;;13.59;80.81;100264.54;131025;1251;107302;-78
2023/09/02 02:10:24;;;;;;;7.50;4.70;;;;;;;13.53;80.86;100269.52;131109;1254;107471;-78
2023/09/02 02:13:30;;;;;;;6.80;5.00;;;;;;;13.50;80.76;100276.80;131141;1253;108463;-78
2023/09/02 02:16:36;;;;;;;8.40;4.80;;;;;;;13.48;80.65;100277.27;131124;1253;107696;-78
2023/09/02 02:19:44;;;;;;;7.20;5.00;;;;;;;13.43;80.66;100277.65;131064;1253;106629;-78
2023/09/02 02:22:49;;;;;;;7.00;5.20;;;;;;;13.38;80.61;100275.48;131080;1250;109258;-78
2023/09/02 02:25:58;;;;;;;9.30;5.30;;;;;;;13.32;80.66;100285.91;131174;1251;106684;-77
2023/09/02 02:29:04;;;;;;;8.20;5.00;;;;;;;13.25;80.65;100286.17;131075;1251;106837;-77
2023/09/02 02:32:09;;;;;;;6.50;4.90;;;;;;;13.17;80.76;100287.23;131041;1253;107101;-77
2023/09/02 02:35:20;;;;;;;6.70;4.40;;;;;;;13.13;80.74;100286.07;131054;1253;106706;-77
2023/09/02 02:38:26;;;;;;;6.90;4.60;;;;;;;13.12;80.76;100287.41;131101;1254;108628;-78
2023/09/02 02:41:32;;;;;;;7.10;4.90;;;;;;;13.12;80.75;100284.38;131174;1251;108536;-77
2023/09/02 02:44:37;;;;;;;6.70;4.70;;;;;;;13.12;80.78;100279.94;131079;1253;106550;-77
2023/09/02 02:47:43;;;;;;;7.50;4.90;;;;;;;13.12;80.76;100277.39;131096;1253;107446;-77
2023/09/02 02:50:49;;;;;;;6.60;4.70;;;;;;;13.10;80.75;100275.13;131071;1253;107269;-77
2023/09/02 02:53:54;;;;;;;7.10;4.50;;;;;;;13.05;80.54;100270.55;131080;1250;106619;-77
2023/09/02 02:57:00;;;;;;;6.80;4.90;;;;;;;12.98;80.72;100270.78;131115;1250;106958;-77
2023/09/02 03:00:08;;;;;;;5.50;4.60;;;;;;;12.92;80.65;100271.77;131053;1254;106603;-77
2023/09/02 03:03:13;;;;;;;7.90;4.70;;;;;;;12.84;80.66;100270.32;131079;1253;108628;-77
2023/09/02 03:06:20;;;;;;;6.80;5.00;;;;;;;12.80;80.58;100274.53;131082;1254;106923;-77
2023/09/02 03:09:25;;;;;;;8.10;5.00;;;;;;;12.74;80.67;100273.73;131110;1253;106820;-77
2023/09/02 03:12:31;;;;;;;6.50;5.10;;;;;;;12.70;80.67;100280.26;131109;1253;106711;-77
2023/09/02 03:15:38;;;;;;;5.60;4.60;;;;;;;12.64;80.55;100282.33;131051;1253;106470;-78
2023/09/02 03:18:44;;;;;;;11.50;6.00;;;;;;;12.61;80.61;100295.67;131067;1249;106700;-77
2023/09/02 03:21:50;;;;;;;6.20;4.90;;;;;;;12.50;81.00;100295.06;131121;1254;108652;-77
2023/09/02 03:24:56;;;;;;;7.10;4.90;;;;;;;12.36;81.05;100296.66;131033;1251;107806;-77
2023/09/02 03:28:05;;;;;;;6.10;4.80;;;;;;;12.34;81.02;100297.96;131049;1253;107774;-78
2023/09/02 03:31:11;;;;;;;7.80;5.10;;;;;;;12.35;81.05;100299.27;131082;1251;107410;-77
2023/09/02 03:34:19;;;;;;;6.80;4.90;;;;;;;12.32;80.98;100290.34;131069;1250;106428;-77
2023/09/02 03:37:26;;;;;;;6.70;4.80;;;;;;;12.30;80.69;100287.33;131137;1250;108528;-77
2023/09/02 03:40:32;;;;;;;8.20;5.20;;;;;;;12.26;80.79;100290.08;131197;1253;108071;-77
2023/09/02 03:43:38;;;;;;;8.10;5.30;;;;;;;12.23;80.76;100292.27;131087;1250;106686;-77
2023/09/02 03:46:44;;;;;;;7.80;4.80;;;;;;;12.20;80.70;100293.81;131036;1253;106951;-77
2023/09/02 03:49:51;;;;;;;10.40;5.00;;;;;;;12.14;80.68;100290.45;131001;1254;106869;-79
2023/09/02 03:52:57;;;;;;;8.80;5.00;;;;;;;12.10;80.66;100291.81;131061;1251;108580;-79
2023/09/02 03:56:03;;;;;;;7.30;5.10;;;;;;;12.06;80.59;100298.48;131123;1251;109405;-78
2023/09/02 03:59:09;;;;;;;6.50;5.10;;;;;;;12.03;80.67;100303.55;131130;1253;107713;-77
2023/09/02 04:02:15;;;;;;;6.30;5.30;;;;;;;12.06;80.49;100302.95;131129;1254;106642;-77
2023/09/02 04:05:21;;;;;;;8.10;5.60;;;;;;;12.06;80.57;100294.67;131226;1253;107751;-78
2023/09/02 04:08:27;;;;;;;8.20;5.50;;;;;;;12.07;80.50;100293.04;131109;1249;107932;-77
2023/09/02 04:11:33;;;;;;;8.10;5.20;;;;;;;12.07;80.55;100293.74;131212;1253;106409;-77
2023/09/02 04:14:38;;;;;;;6.80;5.50;;;;;;;12.04;80.33;100296.20;131166;1253;106961;-77
2023/09/02 04:17:44;;;;;;;8.70;5.40;;;;;;;12.00;80.65;100300.90;131098;1253;106595;-77
2023/09/02 04:20:51;;;;;;;6.80;5.00;;;;;;;11.96;80.49;100302.69;131123;1253;107066;-77
2023/09/02 04:23:57;;;;;;;6.10;4.70;;;;;;;11.95;80.69;100307.06;131066;1251;106687;-77
2023/09/02 04:27:04;;;;;;;7.50;4.70;;;;;;;11.83;80.88;100314.06;131136;1263;106142;-78
2023/09/02 04:30:11;;;;;;;11.10;5.20;;;;;;;11.88;80.73;100313.49;131128;1251;107681;-77
2023/09/02 04:33:17;;;;;;;6.60;4.90;;;;;;;12.05;80.95;100316.36;131048;1250;108565;-77
2023/09/02 04:36:24;;;;;;;7.00;5.70;;;;;;;12.22;80.93;100314.25;131097;1253;107092;-78
2023/09/02 04:39:29;;;;;;;6.20;4.90;;;;;;;12.35;80.83;100319.48;131100;1254;107658;-78
2023/09/02 04:42:36;;;;;;;7.40;5.50;;;;;;;12.49;80.75;100322.22;131133;1251;107507;-77
2023/09/02 04:45:42;;;;;;;8.30;5.50;;;;;;;12.63;80.91;100326.96;131141;1254;107653;-77
2023/09/02 04:48:51;;;;;;;6.60;4.90;;;;;;;12.80;80.91;100332.21;131109;1250;107501;-77
2023/09/02 04:51:59;;;;;;;7.80;5.70;;;;;;;12.92;80.62;100335.70;131054;1251;108432;-77
2023/09/02 04:55:05;;;;;;;8.20;5.40;;;;;;;13.03;80.90;100334.10;131107;1253;106976;-78
2023/09/02 04:58:11;;;;;;;7.70;5.80;;;;;;;13.23;81.10;100329.24;131047;1253;107402;-77
2023/09/02 05:01:18;;;;;;;6.80;5.20;;;;;;;13.44;81.00;100333.27;131115;1249;108332;-78
2023/09/02 05:04:27;;;;;;;7.90;5.20;;;;;;;13.60;81.04;100335.55;131284;1253;106505;-76
2023/09/02 05:07:33;;;;;;;8.10;5.50;;;;;;;13.77;80.84;100339.27;131034;1254;107776;-75
2023/09/02 05:10:39;;;;;;;7.20;4.80;;;;;;;13.89;80.70;100333.67;131120;1251;105768;-75
2023/09/02 05:13:45;;;;;;;8.90;5.00;;;;;;;14.02;80.79;100335.53;131201;1251;107414;-75
2023/09/02 05:16:50;;;;;;;6.70;4.60;;;;;;;14.19;80.97;100335.80;131320;1251;108417;-77
2023/09/02 05:19:56;;;;;;;7.70;5.30;;;;;;;14.36;81.07;100340.48;131080;1250;108204;-76
2023/09/02 05:23:02;;;;;;;7.20;5.20;;;;;;;14.47;81.14;100345.76;131045;1250;107250;-75
2023/09/02 05:26:08;;;;;;;7.60;5.10;;;;;;;14.57;81.56;100349.52;131144;1256;106256;-75
2023/09/02 05:29:13;;;;;;;8.30;5.30;;;;;;;14.65;81.44;100351.86;131305;1247;109345;-76
2023/09/02 05:32:19;;;;;;;7.40;5.20;;;;;;;14.71;81.20;100353.06;132073;1250;107672;-75
2023/09/02 05:35:25;;;;;;;6.00;5.10;;;;;;;14.76;81.36;100349.33;131217;1253;106511;-76
2023/09/02 05:38:31;;;;;;;7.70;5.70;;;;;;;14.83;81.66;100349.77;131274;1248;106785;-75
2023/09/02 05:41:38;;;;;;;7.70;5.60;;;;;;;14.92;81.78;100352.33;131282;1253;106557;-77
2023/09/02 05:44:44;;;;;;;6.80;5.00;;;;;;;15.06;82.14;100352.69;131187;1253;108634;-75
2023/09/02 05:47:50;;;;;;;7.90;5.70;;;;;;;15.17;82.13;100354.58;131186;1253;107570;-78
2023/09/02 05:50:59;;;;;;;9.10;7.00;;;;;;;15.26;82.63;100357.66;131080;1254;106326;-74
2023/09/02 05:54:06;;;;;;;10.20;6.90;;;;;;;15.34;83.06;100359.60;131191;1250;107131;-75
2023/09/02 05:57:11;;;;;;;9.30;6.60;;;;;;;15.38;83.43;100360.39;131205;1253;106906;-75
2023/09/02 06:00:18;;;;;;;9.00;6.10;;;;;;;15.45;83.51;100357.14;131115;1253;107019;-75
2023/09/02 06:03:23;;;;;;;9.10;6.70;;;;;;;15.57;83.26;100355.59;131021;1253;107385;-77
2023/09/02 06:06:29;;;;;;;10.40;7.30;;;;;;;15.70;83.13;100355.61;131182;1253;106807;-77
2023/09/02 06:09:35;;;;;;;9.10;6.50;;;;;;;15.80;83.10;100360.27;131132;1255;107734;-78
2023/09/02 06:12:40;;;;;;;7.60;6.60;;;;;;;15.91;83.11;100363.45;131153;1251;107389;-76
2023/09/02 06:15:46;;;;;;;9.80;7.70;;;;;;;16.02;83.31;100366.54;131093;1253;107819;-77
2023/09/02 06:18:51;;;;;;;11.60;8.30;;;;;;;16.11;83.26;100371.73;131043;1251;108442;-75
2023/09/02 06:21:57;;;;;;;9.00;6.70;;;;;;;16.21;83.28;100381.70;131282;1253;108762;-77
2023/09/02 06:25:03;;;;;;;10.80;8.00;;;;;;;16.32;83.27;100383.89;131084;1253;106594;-77
2023/09/02 06:28:09;;;;;;;9.40;7.30;;;;;;;16.44;83.03;100381.20;131581;1250;107600;-76
2023/09/02 06:31:14;;;;;;;10.30;8.10;;;;;;;16.55;82.82;100382.55;131120;1253;106625;-77
2023/09/02 06:34:22;;;;;;;8.90;7.10;;;;;;;16.66;82.81;100383.10;131117;1253;107713;-76
2023/09/02 06:37:29;;;;;;;8.90;7.40;;;;;;;16.75;82.63;100383.44;131085;1253;107623;-74
2023/09/02 06:40:34;;;;;;;12.60;7.50;;;;;;;16.83;82.63;100380.33;131049;1250;108733;-74
2023/09/02 06:43:40;;;;;;;10.60;7.00;;;;;;;16.91;82.56;100384.56;131104;1263;107749;-75
2023/09/02 06:46:47;;;;;;;9.80;6.70;;;;;;;17.02;82.39;100385.05;131223;1251;107377;-74
2023/09/02 06:49:53;;;;;;;9.90;6.80;;;;;;;17.11;82.13;100384.59;131174;1263;105778;-77
2023/09/02 06:52:58;;;;;;;8.10;6.20;;;;;;;17.22;82.20;100388.23;131918;1250;106413;-76
2023/09/02 06:56:06;;;;;;;8.30;6.60;;;;;;;17.33;81.66;100386.50;131316;1253;107562;-76
2023/09/02 06:59:11;;;;;;;7.50;6.50;;;;;;;17.43;81.72;100387.19;131244;1253;107890;-82
2023/09/02 07:02:17;;;;;;;8.10;5.70;;;;;;;17.50;81.54;100389.00;131223;1253;107725;-78
2023/09/02 07:05:22;;;;;;;7.80;5.20;;;;;;;17.58;82.06;100390.22;131076;1249;107619;-77
2023/09/02 07:08:28;;;;;;;6.20;4.70;;;;;;;17.69;81.60;100397.45;131118;1253;108739;-76
2023/09/02 07:11:33;;;;;;;6.30;5.00;;;;;;;17.76;81.29;100400.82;131096;1253;106728;-76
2023/09/02 07:14:39;;;;;;;8.00;5.10;;;;;;;17.85;80.63;100406.76;131093;1250;107453;-75
2023/09/02 07:17:46;;;;;;;5.90;4.90;;;;;;;17.94;79.72;100411.52;131372;1251;108599;-75
2023/09/02 07:20:52;;;;;;;9.80;5.60;;;;;;;17.98;79.04;100416.00;131028;1253;106976;-75
2023/09/02 07:23:57;;;;;;;7.10;5.60;;;;;;;18.05;79.70;100414.09;131253;1251;108086;-75
2023/09/02 07:27:03;;;;;;;6.60;4.70;;;;;;;18.16;80.11;100411.98;131059;1253;108811;-75
2023/09/02 07:30:10;;;;;;;5.40;4.50;;;;;;;18.31;80.64;100421.92;131034;1253;107631;-76
2023/09/02 07:33:17;;;;;;;4.70;3.80;;;;;;;18.49;81.09;100425.00;131597;1250;105781;-76
2023/09/02 07:36:23;;;;;;;7.60;3.90;;;;;;;18.66;79.93;100427.20;131595;1249;107576;-76
2023/09/02 07:39:29;;;;;;;7.40;5.10;;;;;;;18.77;79.07;100427.79;131399;1253;107564;-75
2023/09/02 07:42:34;;;;;;;5.60;4.00;;;;;;;18.83;78.17;100434.40;131806;1253;107671;-76
2023/09/02 07:45:40;;;;;;;7.80;5.00;;;;;;;18.94;78.79;100433.81;132495;1249;107700;-77
2023/09/02 07:48:48;;;;;;;5.50;4.20;;;;;;;19.01;78.11;100432.41;132273;1253;107593;-76
2023/09/02 07:51:54;;;;;;;5.50;4.00;;;;;;;19.03;76.38;100438.45;131821;1250;108677;-77
2023/09/02 07:55:00;;;;;;;5.60;3.70;;;;;;;18.98;75.76;100447.13;131446;1253;106293;-76
2023/09/02 07:58:06;;;;;;;6.00;3.90;;;;;;;19.02;76.44;100449.30;131220;1250;108315;-76
2023/09/02 08:01:12;;;;;;;4.50;2.80;;;;;;;19.03;70.79;100459.51;131175;1253;108487;-76
2023/09/02 08:04:17;;;;;;;4.50;3.20;;;;;;;19.08;74.73;100465.14;131094;1253;107354;-75
2023/09/02 08:07:23;;;;;;;5.10;3.60;;;;;;;19.22;75.34;100463.88;131051;1253;107177;-75
2023/09/02 08:10:28;;;;;;;5.00;3.10;;;;;;;19.33;73.80;100464.86;131075;1251;108307;-75
2023/09/02 08:13:34;;;;;;;4.20;3.60;;;;;;;19.43;73.30;100463.34;131045;1253;106358;-76
2023/09/02 08:16:40;;;;;;;4.20;3.10;;;;;;;19.46;72.86;100468.16;131273;1253;107973;-75
2023/09/02 08:19:46;;;;;;;5.00;3.40;;;;;;;19.57;74.13;100473.18;131061;1251;107724;-76
2023/09/02 08:22:51;;;;;;;5.10;3.30;;;;;;;19.66;72.64;100473.18;131046;1253;108464;-76
2023/09/02 08:25:57;;;;;;;5.30;3.30;;;;;;;19.62;72.54;100473.19;131153;1251;106521;-80
2023/09/02 08:29:02;;;;;;;5.20;3.50;;;;;;;19.61;71.93;100474.42;131066;1255;106084;-76
2023/09/02 08:32:08;;;;;;;4.60;3.40;;;;;;;19.68;71.62;100477.61;131092;1253;107334;-76
2023/09/02 08:35:14;;;;;;;5.00;3.00;;;;;;;19.83;70.33;100480.39;131024;1253;107696;-76
2023/09/02 08:38:19;;;;;;;3.80;2.90;;;;;;;19.97;70.06;100486.76;131161;1253;107914;-76
2023/09/02 08:41:30;;;;;;;4.80;3.40;;;;;;;20.12;68.10;100488.86;131893;1253;107551;-76
2023/09/02 08:44:37;;;;;;;5.30;3.00;;;;;;;20.19;68.90;100488.31;131475;1250;106742;-77
2023/09/02 08:47:45;;;;;;;4.20;3.10;;;;;;;20.36;70.06;100489.58;131175;1250;106703;-76
2023/09/02 08:50:51;;;;;;;3.90;2.70;;;;;;;20.57;70.34;100492.29;131204;1253;108529;-76
2023/09/02 08:53:58;;;;;;;4.10;2.90;;;;;;;20.66;70.03;100496.20;131093;1250;108434;-76
2023/09/02 08:57:05;;;;;;;4.60;2.90;;;;;;;20.60;66.40;100495.86;131689;1253;108875;-76
2023/09/02 09:00:13;;;;;;;5.30;2.90;;;;;;;20.51;67.39;100499.68;131556;1253;107742;-75
2023/09/02 09:03:20;;;;;;;4.50;2.50;;;;;;;20.49;67.95;100496.71;131475;1250;107398;-76
2023/09/02 09:06:27;;;;;;;5.30;3.20;;;;;;;20.58;66.90;100499.79;131668;1253;105830;-77
2023/09/02 09:09:36;;;;;;;4.80;3.50;;;;;;;20.57;67.49;100502.25;131488;1251;105350;-76
2023/09/02 09:12:44;;;;;;;4.70;3.20;;;;;;;20.66;68.71;100500.33;131367;1251;108448;-76
2023/09/02 09:15:50;;;;;;;3.80;2.60;;;;;;;20.67;67.61;100501.45;131422;1249;108666;-75
2023/09/02 09:18:55;;;;;;;4.40;3.20;;;;;;;20.65;66.97;100507.72;131449;1250;107757;-76
2023/09/02 09:22:02;;;;;;;4.30;3.00;;;;;;;20.49;63.82;100509.19;131435;1251;106960;-76
2023/09/02 09:25:09;;;;;;;3.90;3.00;;;;;;;20.39;66.36;100506.58;131375;1267;107658;-76
2023/09/02 09:28:15;;;;;;;4.00;2.90;;;;;;;20.42;66.49;100513.41;131462;1253;107045;-76
2023/09/02 09:31:22;;;;;;;4.10;3.10;;;;;;;20.50;68.20;100516.40;131625;1251;108489;-76
2023/09/02 09:34:37;;;;;;;4.10;3.00;;;;;;;20.52;65.49;100519.73;131229;1256;107804;-76
2023/09/02 09:37:55;;;;;;;3.60;2.80;;;;;;;20.57;67.70;100513.14;131417;1253;107703;-75
2023/09/02 09:41:01;;;;;;;4.50;3.10;;;;;;;20.68;67.10;100516.22;131254;1250;109253;-76
2023/09/02 09:44:08;;;;;;;4.20;2.90;;;;;;;20.73;64.96;100520.83;131227;1253;107161;-74
2023/09/02 09:47:14;;;;;;;4.90;3.30;;;;;;;20.72;65.74;100522.92;131212;1254;107684;-76
2023/09/02 09:50:20;;;;;;;4.10;2.90;;;;;;;20.76;63.53;100525.41;131248;1253;106229;-75
2023/09/02 09:53:32;;;;;;;3.50;3.00;;;;;;;20.66;61.83;100534.95;131329;1253;107725;-78
2023/09/02 09:56:44;;;;;;;4.30;2.90;;;;;;;20.55;63.52;100530.31;131381;1253;106902;-76
2023/09/02 09:59:53;;;;;;;6.40;3.20;;;;;;;20.68;65.08;100533.48;131115;1251;106481;-77
2023/09/02 10:03:00;;;;;;;5.70;3.90;;;;;;;20.85;63.07;100534.77;132166;1250;108785;-77
2023/09/02 10:06:06;;;;;;;3.00;2.70;;;;;;;20.96;64.71;100533.36;131316;1256;107670;-76
2023/09/02 10:09:12;;;;;;;4.40;3.10;;;;;;;21.13;65.47;100532.23;131007;1263;107370;-75
2023/09/02 10:12:18;;;;;;;4.50;3.00;;;;;;;21.25;64.21;100528.46;131034;1253;107145;-77
2023/09/02 10:15:26;;;;;;;4.40;2.90;;;;;;;21.41;64.55;100534.14;131046;1253;107814;-74
2023/09/02 10:18:32;;;;;;;3.50;2.60;;;;;;;21.61;64.32;100535.63;131053;1255;107641;-75
2023/09/02 10:21:40;;;;;;;4.90;3.00;;;;;;;21.84;62.88;100531.08;130742;1253;375257;-74
2023/09/02 10:24:52;;;;;;;4.20;2.50;;;;;;;21.99;62.83;100532.05;131078;1251;106307;-75
2023/09/02 10:28:04;;;;;;;3.70;2.50;;;;;;;22.15;61.65;100535.29;131088;1253;107208;-76
2023/09/02 10:31:12;;;;;;;;;;;;;;;22.12;56.47;100539.49;131078;1263;107770;-75
2023/09/02 10:34:24;;;;;;;4.70;2.70;;;;;;;22.08;61.24;100534.31;131065;1263;106990;-75
2023/09/02 10:37:36;;;;;;;5.70;3.10;;;;;;;22.14;62.77;100534.17;131137;1251;107562;-75
2023/09/02 10:40:41;;;;;;;;;;;;;;;22.23;61.51;100539.45;131012;1255;108614;-76
2023/09/02 10:43:48;;;;;;;5.70;2.90;;;;;;;22.13;58.25;100538.66;131035;1250;106924;-75
2023/09/02 10:46:56;;;;;;;4.50;3.10;;;;;;;21.98;58.52;100540.88;130967;1254;109286;-76
2023/09/02 10:50:03;;;;;;;3.60;2.80;;;;;;;21.94;60.33;100539.73;131091;1250;108401;-75
2023/09/02 10:53:08;;;;;;;4.40;2.90;;;;;;;21.96;57.34;100542.98;131054;1251;107880;-76
2023/09/02 10:56:27;;;;;;;4.20;3.10;;;;;;;21.84;57.23;100543.23;131108;1261;107967;-74
2023/09/02 10:59:33;;;;;;;14.20;10.40;;;;;;;21.76;58.00;100544.52;131114;1251;108429;-75
2023/09/02 11:02:42;;;;;;;12.20;9.50;;;;;;;21.78;60.20;100546.30;131090;1261;106888;-75
2023/09/02 11:06:12;;;;;;;13.60;12.00;;;;;;;21.82;57.71;100551.27;131309;1251;106676;-76
2023/09/02 11:09:51;;;;;;;9.00;7.30;;;;;;;21.79;57.86;100559.24;131293;1256;107794;-75
2023/09/02 11:13:07;;;;;;;5.30;4.10;;;;;;;21.77;58.60;100556.59;131083;1256;107693;-75
2023/09/02 11:16:16;;;;;;;4.00;3.30;;;;;;;21.79;56.92;100547.75;131045;1252;107615;-75
2023/09/02 11:19:58;;;;;;;5.80;3.50;;;;;;;21.68;57.99;100551.70;131079;1251;106508;-75
2023/09/02 11:23:07;;;;;;;3.30;2.90;;;;;;;21.55;57.14;100552.20;131160;1253;108319;-75
2023/09/02 11:26:16;;;;;;;4.10;3.00;;;;;;;21.47;57.42;100547.38;131044;1254;107512;-75
2023/09/02 11:29:26;;;;;;;25.60;18.10;;;;;;;21.58;58.86;100545.17;131147;1256;107811;-75
2023/09/02 11:32:44;;;;;;;42.60;28.20;;;;;;;21.73;58.30;100549.49;130997;1254;108812;-74
2023/09/02 11:35:50;;;;;;;34.80;23.70;;;;;;;21.79;55.28;100550.56;130997;1253;106991;-74
2023/09/02 11:39:07;;;;;;;10.50;7.60;;;;;;;21.89;57.08;100548.13;131019;1251;108564;-77
2023/09/02 11:42:13;;;;;;;4.80;3.50;;;;;;;21.99;57.57;100557.10;131184;1261;107681;-76
2023/09/02 11:45:19;;;;;;;4.80;3.40;;;;;;;21.95;55.24;100561.88;131078;1255;108596;-76
2023/09/02 11:48:27;;;;;;;5.00;4.00;;;;;;;21.94;55.51;100566.40;131067;1253;107932;-76
2023/09/02 11:51:33;;;;;;;5.80;4.60;;;;;;;21.98;57.55;100560.60;131075;1254;108571;-76
2023/09/02 11:54:40;;;;;;;4.20;3.10;;;;;;;22.01;56.37;100563.05;131065;1251;107769;-76
2023/09/02 11:57:47;;;;;;;4.90;3.50;;;;;;;22.03;57.63;100564.34;130994;1251;108660;-77
2023/09/02 12:00:52;;;;;;;4.50;3.10;;;;;;;22.04;55.16;100566.41;131102;1254;107937;-76
2023/09/02 12:03:59;;;;;;;5.80;3.60;;;;;;;22.00;57.31;100563.23;131402;1255;107780;-76
2023/09/02 12:07:05;;;;;;;5.90;3.70;;;;;;;21.93;55.61;100566.00;131326;1253;108754;-76
2023/09/02 12:10:13;;;;;;;5.20;3.80;;;;;;;21.91;56.13;100564.08;131052;1264;108375;-75
2023/09/02 12:13:21;;;;;;;3.80;3.20;;;;;;;22.00;56.68;100561.55;131061;1255;107700;-76
2023/09/02 12:16:28;;;;;;;4.20;3.20;;;;;;;22.06;53.90;100560.38;131040;1255;106516;-76
2023/09/02 12:19:34;;;;;;;3.20;2.90;;;;;;;22.11;54.56;100563.97;131093;1253;106791;-78
2023/09/02 12:22:43;;;;;;;3.00;2.70;;;;;;;22.11;53.38;100562.13;131043;1251;107014;-76
2023/09/02 12:26:08;;;;;;;4.40;3.20;;;;;;;22.18;54.19;100564.20;131101;1255;107488;-76
2023/09/02 12:29:17;;;;;;;5.90;3.50;;;;;;;22.26;54.26;100565.41;131094;1253;106783;-77
2023/09/02 12:32:23;;;;;;;4.40;2.80;;;;;;;22.33;54.94;100564.52;131172;1263;108654;-75
2023/09/02 12:35:29;;;;;;;4.80;3.30;;;;;;;22.42;54.14;100567.32;131589;1254;106769;-75
2023/09/02 12:42:17;;;;;;;4.60;3.40;;;;;;;22.62;55.05;100568.92;126983;1295;635812;-75
2023/09/02 12:45:30;;;;;;;3.40;2.80;;;;;;;22.63;52.06;100579.67;130077;1263;108503;-75
2023/09/02 12:48:36;;;;;;;3.80;3.40;;;;;;;22.63;54.50;100579.13;130108;1265;107467;-75
2023/09/02 12:51:42;;;;;;;3.80;3.00;;;;;;;22.61;52.42;100575.64;130134;1263;106661;-76
2023/09/02 12:54:56;;;;;;;4.60;3.20;;;;;;;22.58;52.06;100584.03;130450;1253;253879;-76
2023/09/02 12:58:02;;;;;;;3.90;2.90;;;;;;;22.56;50.72;100583.63;130823;1253;107139;-77
2023/09/02 13:01:08;;;;;;;3.60;2.90;;;;;;;22.59;53.17;100584.23;130709;1256;107826;-76
2023/09/02 13:04:13;;;;;;;4.30;2.70;;;;;;;22.62;53.97;100577.42;130994;1253;107026;-75
2023/09/02 13:07:20;;;;;;;3.20;2.90;;;;;;;22.62;53.44;100571.69;130921;1253;106671;-76
2023/09/02 13:10:26;;;;;;;6.00;2.90;;;;;;;22.60;51.66;100580.08;130818;1256;106351;-76
2023/09/02 13:13:32;;;;;;;3.70;2.90;;;;;;;22.52;52.00;100577.91;130748;1255;106742;-76
2023/09/02 13:16:38;;;;;;;3.10;2.60;;;;;;;22.49;50.52;100577.38;130672;1256;107259;-74
2023/09/02 13:19:45;;;;;;;2.80;2.40;;;;;;;22.55;51.82;100570.55;130748;1256;108266;-78
2023/09/02 13:22:50;;;;;;;4.40;2.60;;;;;;;22.64;51.20;100571.80;130714;1253;107691;-77
2023/09/02 13:25:56;;;;;;;3.20;2.40;;;;;;;22.70;52.05;100569.42;130699;1258;106439;-77
2023/09/02 13:29:04;;;;;;;3.00;2.60;;;;;;;22.74;52.93;100571.02;130686;1253;107955;-76
2023/09/02 13:32:16;;;;;;;3.70;2.70;;;;;;;22.68;51.06;100574.67;130717;1259;106842;-77
2023/09/02 13:35:24;;;;;;;3.20;2.30;;;;;;;22.58;51.33;100578.30;130724;1253;107988;-76
2023/09/02 13:38:30;;;;;;;4.10;2.70;;;;;;;22.48;51.70;100579.70;130830;1259;106607;-77
2023/09/02 13:41:35;;;;;;;4.00;2.80;;;;;;;22.42;50.17;100581.55;130864;1257;107748;-77
2023/09/02 13:44:42;;;;;;;4.50;2.80;;;;;;;22.32;51.05;100576.09;130775;1259;108161;-78
2023/09/02 13:47:49;;;;;;;4.00;2.70;;;;;;;22.31;50.16;100574.16;130762;1252;107477;-77
2023/09/02 13:50:58;;;;;;;2.80;2.30;;;;;;;22.25;50.26;100574.63;130866;1253;108592;-78
2023/09/02 13:54:03;;;;;;;5.20;2.80;;;;;;;22.21;51.13;100573.01;130723;1256;108526;-77
2023/09/02 13:57:10;;;;;;;3.20;2.80;;;;;;;22.22;49.59;100570.19;130665;1253;106258;-77
2023/09/02 14:00:23;;;;;;;3.60;2.60;;;;;;;22.22;49.60;100568.11;130780;1253;106302;-76
2023/09/02 14:03:29;;;;;;;4.40;2.70;;;;;;;22.24;50.95;100566.80;131641;1257;107767;-76
2023/09/02 14:06:35;;;;;;;4.00;2.80;;;;;;;22.29;52.21;100567.90;131842;1253;106574;-76
2023/09/02 14:09:43;;;;;;;3.20;2.60;;;;;;;22.30;51.75;100570.41;130907;1256;108554;-76
2023/09/02 14:12:49;;;;;;;3.30;2.80;;;;;;;22.26;49.94;100573.79;130732;1253;108210;-76
2023/09/02 14:15:55;;;;;;;3.70;2.50;;;;;;;22.26;49.55;100573.71;130799;1253;107617;-76